Time;durP1;ratioP1;P1;durP2;ratioP2;P2;SDS_P1;SDS_P2;PMS_P1;PMS_P2;Temp;Humidity;BMP_temperature;BMP_pressure;BME280_temperature;BME280_humidity;BME280_pressure;Samples;Min_cycle;Max_cycle;Signal;HPM_P1;HPM_P2
2023/06/23 00:01:36;;;;;;;19.88;16.65;;;18.60;99.90;;;;;;5049160;28;20082;-61
2023/06/23 00:04:02;;;;;;;19.27;16.30;;;18.60;99.90;;;;;;5048935;28;20531;-60
2023/06/23 00:06:27;;;;;;;19.27;17.35;;;18.50;99.90;;;;;;5060859;28;20043;-61
2023/06/23 00:08:53;;;;;;;20.00;17.95;;;18.60;99.90;;;;;;5014852;28;20040;-61
2023/06/23 00:11:19;;;;;;;20.02;17.80;;;18.50;99.90;;;;;;5069710;28;20084;-59
2023/06/23 00:13:44;;;;;;;20.75;18.20;;;18.50;99.90;;;;;;5064311;28;20041;-60
2023/06/23 00:16:10;;;;;;;22.00;19.45;;;18.50;99.90;;;;;;5047899;28;20076;-61
2023/06/23 00:18:39;;;;;;;18.75;16.98;;;18.50;99.90;;;;;;5061338;28;20568;-61
2023/06/23 00:21:07;;;;;;;23.30;19.80;;;18.50;99.90;;;;;;5036778;28;20044;-61
2023/06/23 00:23:33;;;;;;;23.25;20.77;;;18.50;99.90;;;;;;5051493;28;20040;-60
2023/06/23 00:26:00;;;;;;;20.98;18.77;;;18.40;99.90;;;;;;5064402;28;20037;-60
2023/06/23 00:28:26;;;;;;;19.70;17.70;;;18.40;99.90;;;;;;5046325;28;20043;-60
2023/06/23 00:30:53;;;;;;;21.52;19.15;;;18.40;99.90;;;;;;5067258;28;20029;-60
2023/06/23 00:33:19;;;;;;;20.17;18.10;;;18.40;99.90;;;;;;5061340;28;20052;-59
2023/06/23 00:35:45;;;;;;;22.05;18.63;;;18.40;99.90;;;;;;5038236;28;20436;-59
2023/06/23 00:38:11;;;;;;;20.00;17.92;;;18.40;99.90;;;;;;5048564;28;20060;-60
2023/06/23 00:40:38;;;;;;;21.63;19.33;;;18.40;99.90;;;;;;5041502;28;20036;-60
2023/06/23 00:43:03;;;;;;;20.73;17.85;;;18.40;99.90;;;;;;5064682;28;20451;-60
2023/06/23 00:45:29;;;;;;;20.48;17.90;;;18.40;99.90;;;;;;5040765;28;20120;-60
2023/06/23 00:47:56;;;;;;;18.58;16.67;;;18.40;99.90;;;;;;5048340;28;20098;-60
2023/06/23 00:50:24;;;;;;;19.20;16.73;;;18.40;99.90;;;;;;5057515;28;20091;-60
2023/06/23 00:52:52;;;;;;;18.52;16.48;;;18.40;99.90;;;;;;5066592;28;20411;-60
2023/06/23 00:55:21;;;;;;;20.48;18.13;;;18.40;99.90;;;;;;5032811;28;20044;-59
2023/06/23 00:57:49;;;;;;;21.35;17.10;;;18.40;99.90;;;;;;5068161;28;20074;-60
2023/06/23 01:00:18;;;;;;;18.88;16.80;;;18.40;99.90;;;;;;5071313;28;20050;-60
2023/06/23 01:02:50;;;;;;;19.50;17.48;;;18.40;99.90;;;;;;5069011;28;20060;-60
2023/06/23 01:05:27;;;;;;;18.75;16.75;;;18.30;99.90;;;;;;5068538;28;20406;-60
2023/06/23 01:08:20;;;;;;;22.35;18.50;;;18.30;99.90;;;;;;5035461;28;20119;-60
2023/06/23 01:10:56;;;;;;;17.88;15.50;;;18.20;99.90;;;;;;5049756;28;20597;-60
2023/06/23 01:13:25;;;;;;;17.40;15.38;;;18.20;99.90;;;;;;5031151;28;20125;-59
2023/06/23 01:16:10;;;;;;;18.77;16.80;;;18.20;99.90;;;;;;5068691;28;20032;-59
2023/06/23 01:19:20;;;;;;;20.27;17.60;;;18.10;99.90;;;;;;5067728;28;20043;-58
2023/06/23 01:21:49;;;;;;;18.58;16.65;;;18.10;99.90;;;;;;5048725;28;20080;-60
2023/06/23 01:24:29;;;;;;;21.98;17.38;;;18.10;99.90;;;;;;5063147;28;20075;-60
2023/06/23 01:27:13;;;;;;;19.48;16.83;;;18.00;99.90;;;;;;5067280;28;20583;-60
2023/06/23 01:29:42;;;;;;;20.83;18.52;;;17.90;99.90;;;;;;5059544;28;20087;-60
2023/06/23 01:32:15;;;;;;;22.40;19.38;;;17.90;99.90;;;;;;5068557;28;20721;-60
2023/06/23 01:34:45;;;;;;;23.38;20.02;;;17.90;99.90;;;;;;5056291;28;20043;-60
2023/06/23 01:37:23;;;;;;;21.75;19.25;;;17.80;99.90;;;;;;5062393;28;20573;-60
2023/06/23 01:39:54;;;;;;;27.42;20.90;;;17.80;99.90;;;;;;5066217;28;20041;-60
2023/06/23 01:42:23;;;;;;;25.63;21.98;;;17.80;99.90;;;;;;5029548;28;20056;-60
2023/06/23 01:44:55;;;;;;;23.70;21.27;;;17.70;99.90;;;;;;5042098;22;20038;-57
2023/06/23 01:47:30;;;;;;;26.75;20.52;;;17.70;99.90;;;;;;5024731;28;20551;-55
2023/06/23 01:49:58;;;;;;;25.60;21.10;;;17.70;99.90;;;;;;5025109;28;20481;-57
2023/06/23 01:52:25;;;;;;;24.35;19.98;;;17.70;99.90;;;;;;5026599;28;20136;-57
2023/06/23 01:54:53;;;;;;;22.92;20.25;;;17.60;99.90;;;;;;5010219;28;20558;-58
2023/06/23 01:57:21;;;;;;;24.42;20.15;;;17.60;99.90;;;;;;5026651;22;20068;-58
2023/06/23 01:59:48;;;;;;;25.15;20.98;;;17.50;99.90;;;;;;5033384;28;20041;-58
2023/06/23 02:02:15;;;;;;;24.45;20.45;;;17.50;99.90;;;;;;5013881;28;20392;-59
2023/06/23 02:04:43;;;;;;;26.35;20.90;;;17.50;99.90;;;;;;5017866;28;20474;-58
2023/06/23 02:07:13;;;;;;;22.52;20.13;;;17.50;99.90;;;;;;5030911;28;20037;-58
2023/06/23 02:09:41;;;;;;;19.80;17.40;;;17.50;99.90;;;;;;5031392;28;20110;-58
2023/06/23 02:12:08;;;;;;;24.55;19.75;;;17.40;99.90;;;;;;5011890;28;20044;-58
2023/06/23 02:14:37;;;;;;;22.40;20.13;;;17.40;99.90;;;;;;5040009;28;20455;-58
2023/06/23 02:17:10;;;;;;;23.88;20.98;;;17.40;99.90;;;;;;5016882;28;20110;-58
2023/06/23 02:19:38;;;;;;;25.70;22.93;;;17.40;99.90;;;;;;5010317;28;20293;-58
2023/06/23 02:22:11;;;;;;;26.88;23.67;;;17.40;99.90;;;;;;5032854;28;20517;-58
2023/06/23 02:24:39;;;;;;;28.80;25.00;;;17.40;99.90;;;;;;5027969;28;20064;-58
2023/06/23 02:27:06;;;;;;;27.60;24.67;;;17.30;99.90;;;;;;5030766;28;20033;-58
2023/06/23 02:29:35;;;;;;;29.45;26.40;;;17.40;99.90;;;;;;5014833;28;20041;-59
2023/06/23 02:32:02;;;;;;;33.20;29.67;;;17.30;99.90;;;;;;5030361;28;20059;-58
2023/06/23 02:34:29;;;;;;;31.13;27.90;;;17.30;99.90;;;;;;5019512;28;20440;-58
2023/06/23 02:37:01;;;;;;;31.33;28.20;;;17.40;99.90;;;;;;5033085;28;20071;-58
2023/06/23 02:39:39;;;;;;;31.85;27.90;;;17.30;99.90;;;;;;5042346;28;20044;-57
2023/06/23 02:42:07;;;;;;;35.63;31.83;;;17.30;99.90;;;;;;5025674;28;20038;-58
2023/06/23 02:44:38;;;;;;;35.50;31.98;;;17.30;99.90;;;;;;5030557;28;20041;-58
2023/06/23 02:47:16;;;;;;;33.85;30.25;;;17.30;99.90;;;;;;5029827;28;20043;-58
2023/06/23 02:49:44;;;;;;;34.95;31.35;;;17.30;99.90;;;;;;5017699;28;20041;-58
2023/06/23 02:52:13;;;;;;;38.35;34.17;;;17.30;99.90;;;;;;5027244;28;20037;-58
2023/06/23 02:54:45;;;;;;;39.05;35.15;;;17.30;99.90;;;;;;5027019;28;20044;-58
2023/06/23 02:57:14;;;;;;;39.88;35.47;;;17.30;99.90;;;;;;5030318;28;20531;-57
2023/06/23 02:59:45;;;;;;;39.45;34.15;;;17.20;99.90;;;;;;5033217;28;20123;-58
2023/06/23 03:02:14;;;;;;;37.80;33.85;;;17.20;99.90;;;;;;5047580;28;20041;-58
2023/06/23 03:04:41;;;;;;;34.60;30.92;;;17.20;99.90;;;;;;5043376;28;20045;-58
2023/06/23 03:07:08;;;;;;;36.83;31.48;;;17.20;99.90;;;;;;5033311;28;20045;-58
2023/06/23 03:09:34;;;;;;;39.00;32.50;;;17.20;99.90;;;;;;5030003;28;20037;-58
2023/06/23 03:12:00;;;;;;;34.13;30.23;;;17.20;99.90;;;;;;5008795;28;20044;-58
2023/06/23 03:14:26;;;;;;;36.10;30.50;;;17.10;99.90;;;;;;5026648;28;20037;-58
2023/06/23 03:17:02;;;;;;;33.58;29.75;;;17.20;99.90;;;;;;5011570;28;20075;-59
2023/06/23 03:19:36;;;;;;;32.95;28.27;;;17.20;99.90;;;;;;5005290;28;20381;-58
2023/06/23 03:22:21;;;;;;;28.83;25.25;;;17.20;99.90;;;;;;5028870;28;20087;-58
2023/06/23 03:24:54;;;;;;;33.67;28.40;;;17.20;99.90;;;;;;5031217;28;20037;-58
2023/06/23 03:27:24;;;;;;;29.00;25.88;;;17.20;99.90;;;;;;5013739;28;20044;-58
2023/06/23 03:30:22;;;;;;;27.63;24.23;;;17.20;99.90;;;;;;5010899;28;20049;-58
2023/06/23 03:32:50;;;;;;;30.30;25.88;;;17.20;99.90;;;;;;5008734;28;20051;-58
2023/06/23 03:35:23;;;;;;;29.55;24.77;;;17.20;99.90;;;;;;5014135;28;20114;-57
2023/06/23 03:37:50;;;;;;;;;;;17.20;99.90;;;;;;5030110;28;20036;-58
2023/06/23 03:40:21;;;;;;;30.40;26.15;;;17.10;99.90;;;;;;5008311;28;19917;-57
2023/06/23 03:43:06;;;;;;;28.05;22.20;;;17.10;99.90;;;;;;5025303;28;20040;-57
2023/06/23 03:45:34;;;;;;;27.48;23.80;;;17.10;99.90;;;;;;5027136;28;20499;-57
2023/06/23 03:48:04;;;;;;;24.48;20.15;;;17.10;99.90;;;;;;5027381;28;20037;-58
2023/06/23 03:50:34;;;;;;;24.65;21.30;;;17.10;99.90;;;;;;5029172;28;20461;-58
2023/06/23 03:53:03;;;;;;;28.38;21.13;;;17.10;99.90;;;;;;5046453;28;20450;-58
2023/06/23 03:55:32;;;;;;;27.38;21.05;;;17.10;99.90;;;;;;5015379;28;20302;-58
2023/06/23 03:58:02;;;;;;;23.67;20.25;;;17.10;99.90;;;;;;5007478;28;20041;-58
2023/06/23 04:00:31;;;;;;;25.45;20.27;;;17.10;99.90;;;;;;5012552;28;20087;-58
2023/06/23 04:02:59;;;;;;;27.02;21.73;;;17.10;99.90;;;;;;5027757;28;20634;-58
2023/06/23 04:05:29;;;;;;;25.48;22.05;;;17.10;99.90;;;;;;5028541;28;20396;-57
2023/06/23 04:08:00;;;;;;;23.67;20.77;;;17.00;99.90;;;;;;5020025;28;20045;-58
2023/06/23 04:10:28;;;;;;;23.15;19.40;;;17.00;99.90;;;;;;5022437;28;20136;-58
2023/06/23 04:12:55;;;;;;;23.60;20.83;;;17.00;99.90;;;;;;5010710;28;20088;-58
2023/06/23 04:15:25;;;;;;;23.00;18.75;;;17.00;99.90;;;;;;5014339;28;20037;-58
2023/06/23 04:17:53;;;;;;;19.98;17.45;;;17.00;99.90;;;;;;5025363;28;20048;-58
2023/06/23 04:20:21;;;;;;;19.73;17.40;;;16.90;99.90;;;;;;5052459;28;20072;-58
2023/06/23 04:22:49;;;;;;;19.92;15.70;;;17.00;99.90;;;;;;5017825;28;20040;-58
2023/06/23 04:25:18;;;;;;;19.75;16.02;;;17.00;99.90;;;;;;5034582;28;20391;-59
2023/06/23 04:27:47;;;;;;;19.83;17.35;;;17.00;99.90;;;;;;5029852;28;20045;-58
2023/06/23 04:30:15;;;;;;;18.90;15.95;;;16.90;99.90;;;;;;5027762;28;20120;-59
2023/06/23 04:32:42;;;;;;;19.88;15.57;;;17.00;99.90;;;;;;5038167;28;20040;-58
2023/06/23 04:35:08;;;;;;;21.42;16.48;;;17.00;99.90;;;;;;5049862;28;20156;-58
2023/06/23 04:38:01;;;;;;;19.13;15.95;;;17.00;99.90;;;;;;5049390;28;20459;-58
2023/06/23 04:40:46;;;;;;;20.75;16.55;;;17.00;99.90;;;;;;5033436;28;20106;-58
2023/06/23 04:43:17;;;;;;;24.23;18.83;;;17.00;99.90;;;;;;5012447;28;20052;-58
2023/06/23 04:46:06;;;;;;;26.30;18.27;;;17.00;99.90;;;;;;5031229;28;20087;-58
2023/06/23 04:48:36;;;;;;;21.75;17.67;;;17.00;99.90;;;;;;5031838;28;20047;-59
2023/06/23 04:51:06;;;;;;;23.92;18.38;;;17.00;99.90;;;;;;5033618;28;20072;-59
2023/06/23 04:53:38;;;;;;;24.55;18.63;;;17.10;99.90;;;;;;5016402;28;20587;-59
2023/06/23 04:56:07;;;;;;;25.88;18.58;;;17.10;99.90;;;;;;5018571;28;20491;-57
2023/06/23 04:58:37;;;;;;;23.98;18.42;;;17.10;99.90;;;;;;5011252;28;20102;-57
2023/06/23 05:01:05;;;;;;;25.45;20.00;;;17.10;99.90;;;;;;5022408;28;20056;-59
2023/06/23 05:03:33;;;;;;;24.08;19.23;;;17.10;99.90;;;;;;5028623;28;20311;-59
2023/06/23 05:06:00;;;;;;;20.73;17.25;;;17.10;99.90;;;;;;5006594;28;20056;-59
2023/06/23 05:08:27;;;;;;;28.77;18.38;;;17.10;99.90;;;;;;5050310;28;20083;-59
2023/06/23 05:10:58;;;;;;;22.40;16.45;;;17.20;99.90;;;;;;5029482;28;20078;-59
2023/06/23 05:13:28;;;;;;;20.67;18.48;;;17.20;99.90;;;;;;5020814;28;20045;-59
2023/06/23 05:15:55;;;;;;;21.23;17.55;;;17.20;99.90;;;;;;5012562;28;20048;-59
2023/06/23 05:18:22;;;;;;;20.20;17.30;;;17.20;99.90;;;;;;5008536;28;20512;-59
2023/06/23 05:20:49;;;;;;;19.88;16.83;;;17.30;99.90;;;;;;5032797;28;20044;-59
2023/06/23 05:23:17;;;;;;;23.40;19.27;;;17.30;99.90;;;;;;5035336;28;20037;-59
2023/06/23 05:25:46;;;;;;;16.60;13.93;;;17.40;99.90;;;;;;5009310;28;20385;-59
2023/06/23 05:28:15;;;;;;;19.45;15.40;;;17.50;99.90;;;;;;5017520;28;20056;-59
2023/06/23 05:30:42;;;;;;;21.52;14.77;;;17.60;99.90;;;;;;5032331;28;20131;-59
2023/06/23 05:33:10;;;;;;;19.70;14.60;;;17.70;99.90;;;;;;5030806;28;20040;-59
2023/06/23 05:35:39;;;;;;;14.48;12.45;;;17.80;99.90;;;;;;5043580;28;20447;-59
2023/06/23 05:38:06;;;;;;;17.17;13.65;;;17.90;99.90;;;;;;5029955;28;20033;-59
2023/06/23 05:40:32;;;;;;;15.57;12.32;;;18.00;99.90;;;;;;5032751;28;20041;-59
2023/06/23 05:42:58;;;;;;;17.77;12.13;;;18.10;99.90;;;;;;5010929;28;20071;-59
2023/06/23 05:45:24;;;;;;;16.52;12.95;;;18.20;99.90;;;;;;5025069;28;20045;-59
2023/06/23 05:47:59;;;;;;;19.05;14.98;;;18.30;99.90;;;;;;5026513;28;20041;-59
2023/06/23 05:50:32;;;;;;;16.65;13.05;;;18.40;99.90;;;;;;5015007;28;20095;-59
2023/06/23 05:53:08;;;;;;;17.48;13.68;;;18.50;99.90;;;;;;5031979;28;20044;-59
2023/06/23 05:55:40;;;;;;;14.88;12.25;;;18.60;99.90;;;;;;5029809;28;20491;-59
2023/06/23 05:58:09;;;;;;;16.83;14.15;;;18.70;99.90;;;;;;5014163;28;20049;-59
2023/06/23 06:00:56;;;;;;;16.67;12.10;;;18.70;99.90;;;;;;5032840;28;20044;-59
2023/06/23 06:03:32;;;;;;;17.65;12.93;;;18.80;99.90;;;;;;5033752;28;20040;-59
2023/06/23 06:05:59;;;;;;;;;;;18.90;99.90;;;;;;5031264;28;20060;-59
2023/06/23 06:08:26;;;;;;;12.57;10.73;;;18.90;99.90;;;;;;5038906;28;19923;-59
2023/06/23 06:10:54;;;;;;;12.43;11.05;;;19.00;99.90;;;;;;5009194;28;20033;-59
2023/06/23 06:13:22;;;;;;;15.10;11.25;;;19.10;99.90;;;;;;5025109;28;20430;-59
2023/06/23 06:15:51;;;;;;;15.30;11.80;;;19.10;99.90;;;;;;5024069;28;20049;-59
2023/06/23 06:18:18;;;;;;;17.52;11.25;;;19.20;99.90;;;;;;5038016;28;20483;-59
2023/06/23 06:20:46;;;;;;;12.45;10.55;;;19.30;99.90;;;;;;5020589;28;20052;-59
2023/06/23 06:23:17;;;;;;;14.88;12.23;;;19.30;99.90;;;;;;5024403;28;20395;-59
2023/06/23 06:25:44;;;;;;;16.73;14.40;;;19.40;99.90;;;;;;5024690;28;20151;-59
2023/06/23 06:28:13;;;;;;;15.90;12.90;;;19.50;99.90;;;;;;5026286;28;20065;-59
2023/06/23 06:30:41;;;;;;;15.45;12.52;;;19.30;99.90;;;;;;5028575;28;20041;-59
2023/06/23 06:33:09;;;;;;;12.95;10.50;;;19.40;99.90;;;;;;5022062;28;20045;-59
2023/06/23 06:35:36;;;;;;;13.20;11.00;;;19.50;99.90;;;;;;5031086;28;20329;-59
2023/06/23 06:38:05;;;;;;;10.18;9.05;;;19.50;99.90;;;;;;5027516;28;20045;-60
2023/06/23 06:40:31;;;;;;;11.18;9.15;;;19.50;99.90;;;;;;5006662;28;20698;-59
2023/06/23 06:42:57;;;;;;;11.18;8.52;;;19.50;99.90;;;;;;5023993;28;20047;-59
2023/06/23 06:45:23;;;;;;;10.52;8.30;;;19.60;99.90;;;;;;5010501;28;20536;-59
2023/06/23 06:47:50;;;;;;;10.77;8.35;;;19.60;99.90;;;;;;5010001;28;20044;-59
2023/06/23 06:50:18;;;;;;;10.52;7.05;;;19.60;99.90;;;;;;5025874;28;20072;-59
2023/06/23 06:52:46;;;;;;;10.98;7.55;;;19.70;99.90;;;;;;5033556;28;20028;-60
2023/06/23 06:55:18;;;;;;;10.80;8.15;;;19.90;99.90;;;;;;5026407;28;20329;-59
2023/06/23 06:57:45;;;;;;;9.98;8.20;;;19.90;99.90;;;;;;5022145;28;20318;-60
2023/06/23 07:00:11;;;;;;;10.93;9.82;;;20.00;99.90;;;;;;5003469;28;20036;-59
2023/06/23 07:02:39;;;;;;;13.98;10.30;;;20.00;99.90;;;;;;5021345;28;20044;-60
2023/06/23 07:05:05;;;;;;;11.65;10.02;;;20.00;99.90;;;;;;5026742;28;20522;-59
2023/06/23 07:07:31;;;;;;;11.25;10.02;;;20.10;99.90;;;;;;5028099;28;20480;-59
2023/06/23 07:09:57;;;;;;;11.18;10.00;;;20.10;99.90;;;;;;5025251;28;20041;-59
2023/06/23 07:12:23;;;;;;;14.45;12.32;;;20.20;99.90;;;;;;5026949;28;20040;-59
2023/06/23 07:14:49;;;;;;;13.73;10.57;;;20.20;99.90;;;;;;5027693;28;20045;-60
2023/06/23 07:17:15;;;;;;;12.75;10.52;;;20.30;99.90;;;;;;5019913;28;20396;-59
2023/06/23 07:19:41;;;;;;;12.50;10.80;;;20.50;99.90;;;;;;5022700;28;20041;-60
2023/06/23 07:22:07;;;;;;;12.95;10.70;;;20.60;99.90;;;;;;5028186;28;20052;-60
2023/06/23 07:24:33;;;;;;;12.80;9.30;;;20.70;99.90;;;;;;5024348;28;20484;-59
2023/06/23 07:27:01;;;;;;;11.85;9.18;;;20.70;99.90;;;;;;5032413;28;20043;-60
2023/06/23 07:29:27;;;;;;;11.13;9.27;;;20.90;99.90;;;;;;5022720;28;20494;-60
2023/06/23 07:31:53;;;;;;;13.07;10.93;;;21.00;99.90;;;;;;5010252;28;20051;-59
2023/06/23 07:34:21;;;;;;;12.00;9.00;;;21.00;99.90;;;;;;5023793;28;20052;-59
2023/06/23 07:36:47;;;;;;;13.68;9.65;;;21.10;99.90;;;;;;5026379;28;20033;-59
2023/06/23 07:39:13;;;;;;;10.43;8.63;;;21.00;99.90;;;;;;5009184;28;20067;-59
2023/06/23 07:41:39;;;;;;;11.85;9.30;;;20.90;99.90;;;;;;5026073;28;20670;-59
2023/06/23 07:44:05;;;;;;;11.05;9.82;;;21.00;99.90;;;;;;5025669;28;20052;-61
2023/06/23 07:46:32;;;;;;;13.77;9.27;;;20.90;99.90;;;;;;5026749;28;20513;-56
2023/06/23 07:48:58;;;;;;;13.60;9.07;;;20.90;99.90;;;;;;5012595;28;20064;-61
2023/06/23 07:51:24;;;;;;;9.98;8.38;;;20.90;99.90;;;;;;5028024;28;20040;-62
2023/06/23 07:53:53;;;;;;;10.18;8.18;;;20.90;99.90;;;;;;5029963;28;20752;-62
2023/06/23 07:56:18;;;;;;;8.77;7.88;;;20.90;99.90;;;;;;5032694;28;20044;-62
2023/06/23 07:58:44;;;;;;;8.35;6.95;;;20.80;99.90;;;;;;5057730;23;20041;-54
2023/06/23 08:01:12;;;;;;;8.68;7.32;;;20.90;99.90;;;;;;5015033;28;20191;-56
2023/06/23 08:03:38;;;;;;;9.45;7.28;;;21.10;99.90;;;;;;5048962;28;20045;-56
2023/06/23 08:06:03;;;;;;;9.70;6.85;;;21.00;99.90;;;;;;5068430;28;20040;-56
2023/06/23 08:08:29;;;;;;;9.93;6.80;;;21.00;99.90;;;;;;5047212;28;20044;-56
2023/06/23 08:10:55;;;;;;;11.18;8.13;;;21.00;99.90;;;;;;5050970;28;20194;-57
2023/06/23 08:13:21;;;;;;;10.23;7.65;;;21.10;99.90;;;;;;5079724;28;20043;-55
2023/06/23 08:15:47;;;;;;;10.82;6.82;;;21.20;99.90;;;;;;5038139;28;20437;-57
2023/06/23 08:18:13;;;;;;;9.00;6.82;;;21.40;99.90;;;;;;5043625;28;20069;-55
2023/06/23 08:20:39;;;;;;;8.77;6.28;;;21.40;99.90;;;;;;5061914;28;20086;-56
2023/06/23 08:23:08;;;;;;;9.43;6.55;;;21.40;99.90;;;;;;5059051;28;20063;-53
2023/06/23 08:25:33;;;;;;;7.28;5.90;;;21.50;99.90;;;;;;5064854;28;20052;-56
2023/06/23 08:27:59;;;;;;;6.03;5.40;;;21.60;99.90;;;;;;5066455;28;20091;-57
2023/06/23 08:30:27;;;;;;;8.30;5.43;;;21.70;99.90;;;;;;5080752;28;20493;-58
2023/06/23 08:32:53;;;;;;;7.25;5.88;;;21.80;99.90;;;;;;5049160;28;20373;-55
2023/06/23 08:35:18;;;;;;;7.30;5.55;;;21.80;99.90;;;;;;5070037;28;20043;-55
2023/06/23 08:37:44;;;;;;;9.60;5.95;;;21.80;99.90;;;;;;5062596;28;20036;-58
2023/06/23 08:40:10;;;;;;;7.07;5.57;;;21.90;99.90;;;;;;5062396;28;20047;-56
2023/06/23 08:42:37;;;;;;;8.68;5.82;;;22.00;99.90;;;;;;5046510;28;20467;-57
2023/06/23 08:45:04;;;;;;;9.32;5.50;;;21.90;99.90;;;;;;5068038;28;20111;-59
2023/06/23 08:47:31;;;;;;;7.38;5.30;;;22.00;99.90;;;;;;5066035;28;20033;-59
2023/06/23 08:49:57;;;;;;;7.55;5.85;;;22.00;99.90;;;;;;5065746;28;20451;-57
2023/06/23 08:52:24;;;;;;;8.15;5.40;;;22.10;99.90;;;;;;5052239;28;20487;-57
2023/06/23 08:54:50;;;;;;;6.05;4.78;;;21.90;99.90;;;;;;5066480;28;20055;-57
2023/06/23 08:57:17;;;;;;;6.95;5.70;;;21.80;99.90;;;;;;5066332;28;20051;-57
2023/06/23 08:59:43;;;;;;;7.72;5.20;;;21.80;99.90;;;;;;5067302;28;20066;-57
2023/06/23 09:02:09;;;;;;;7.40;5.35;;;21.90;99.90;;;;;;5069576;28;20482;-58
2023/06/23 09:04:34;;;;;;;5.80;4.65;;;21.90;99.90;;;;;;5034492;28;20047;-57
2023/06/23 09:07:00;;;;;;;7.32;4.90;;;22.20;99.90;;;;;;5063969;28;20537;-58
2023/06/23 09:09:26;;;;;;;6.60;5.25;;;22.20;99.90;;;;;;5048759;28;20175;-55
2023/06/23 09:11:52;;;;;;;8.10;5.00;;;22.30;99.90;;;;;;5071281;28;20062;-54
2023/06/23 09:14:19;;;;;;;6.45;4.88;;;22.30;99.90;;;;;;5081599;28;20461;-55
2023/06/23 09:16:45;;;;;;;6.72;5.32;;;22.40;99.90;;;;;;5086067;28;20071;-57
2023/06/23 09:19:12;;;;;;;6.32;5.15;;;22.30;99.90;;;;;;5065219;28;20040;-56
2023/06/23 09:21:41;;;;;;;7.00;5.18;;;22.40;99.90;;;;;;5068488;28;20055;-52
2023/06/23 09:24:07;;;;;;;6.45;5.75;;;22.60;99.90;;;;;;5062898;28;20055;-55
2023/06/23 09:26:51;;;;;;;7.45;5.57;;;22.70;99.90;;;;;;5057809;28;20044;-55
2023/06/23 09:29:22;;;;;;;8.05;6.32;;;22.60;99.90;;;;;;5063971;28;20403;-53
2023/06/23 09:31:49;;;;;;;6.53;5.70;;;22.80;99.90;;;;;;5067846;28;20055;-57
2023/06/23 09:34:26;;;;;;;7.38;5.50;;;22.90;99.90;;;;;;5048719;28;20270;-57
2023/06/23 09:37:13;;;;;;;7.35;5.90;;;22.80;99.90;;;;;;5065467;28;20044;-57
2023/06/23 09:39:41;;;;;;;6.90;5.63;;;23.10;99.90;;;;;;5066275;28;20036;-56
2023/06/23 09:42:11;;;;;;;8.15;5.68;;;23.30;99.90;;;;;;5081066;28;20044;-54
2023/06/23 09:44:40;;;;;;;8.48;5.82;;;23.50;99.90;;;;;;5064714;28;20521;-56
2023/06/23 09:47:06;;;;;;;5.85;5.18;;;23.50;99.90;;;;;;5061520;28;20051;-58
2023/06/23 09:49:40;;;;;;;6.75;5.25;;;23.60;99.90;;;;;;5063709;28;20124;-57
2023/06/23 09:52:07;;;;;;;7.10;5.45;;;23.20;98.90;;;;;;5058882;28;20047;-55
2023/06/23 09:54:34;;;;;;;8.18;5.22;;;23.00;98.90;;;;;;5044102;28;20051;-57
2023/06/23 09:57:09;;;;;;;7.40;5.47;;;23.00;99.80;;;;;;5065675;28;20043;-56
2023/06/23 09:59:42;;;;;;;7.70;5.50;;;23.30;99.80;;;;;;5063372;28;20069;-57
2023/06/23 10:02:08;;;;;;;;;;;23.40;99.30;;;;;;5061821;28;20090;-56
2023/06/23 10:04:35;;;;;;;6.90;5.93;;;23.50;98.80;;;;;;5063411;28;20086;-57
2023/06/23 10:07:21;;;;;;;6.95;5.55;;;23.30;99.10;;;;;;5067918;28;20047;-56
2023/06/23 10:09:52;;;;;;;6.80;5.20;;;23.40;99.10;;;;;;5062977;28;20537;-55
2023/06/23 10:12:27;;;;;;;9.05;6.00;;;23.40;98.60;;;;;;5084454;28;20083;-55
2023/06/23 10:14:55;;;;;;;8.02;5.55;;;23.40;99.00;;;;;;5075728;28;20045;-55
2023/06/23 10:17:21;;;;;;;7.75;5.70;;;23.50;99.10;;;;;;5048503;28;20471;-57
2023/06/23 10:19:50;;;;;;;8.00;5.90;;;23.30;98.20;;;;;;5049453;28;20498;-56
2023/06/23 10:22:21;;;;;;;5.28;4.53;;;23.10;98.20;;;;;;5084972;28;20054;-56
2023/06/23 10:24:52;;;;;;;7.53;4.95;;;23.30;98.10;;;;;;5068327;28;20040;-58
2023/06/23 10:27:26;;;;;;;5.30;4.60;;;23.10;96.70;;;;;;5062185;28;20450;-56
2023/06/23 10:29:57;;;;;;;6.35;4.90;;;23.20;97.30;;;;;;5077472;28;20512;-58
2023/06/23 10:32:28;;;;;;;8.25;4.32;;;23.50;97.70;;;;;;5060114;28;20125;-57
2023/06/23 10:34:58;;;;;;;8.57;4.70;;;23.00;96.40;;;;;;5057688;28;20406;-55
2023/06/23 10:37:27;;;;;;;7.60;5.22;;;23.30;97.30;;;;;;5063649;28;20043;-57
2023/06/23 10:39:58;;;;;;;8.88;5.78;;;23.20;97.90;;;;;;5062180;28;20036;-56
2023/06/23 10:42:26;;;;;;;6.78;5.05;;;23.40;98.30;;;;;;5048580;28;20100;-55
2023/06/23 10:44:52;;;;;;;6.72;5.32;;;23.60;98.30;;;;;;5060541;28;20093;-56
2023/06/23 10:47:18;;;;;;;7.05;5.28;;;23.90;98.10;;;;;;5063043;28;20032;-58
2023/06/23 10:49:45;;;;;;;9.52;5.53;;;24.00;97.70;;;;;;5080226;28;20093;-56
2023/06/23 10:52:13;;;;;;;7.95;6.13;;;23.70;97.40;;;;;;5064955;28;20423;-57
2023/06/23 10:54:39;;;;;;;6.40;4.40;;;23.60;96.30;;;;;;5044748;28;20064;-60
2023/06/23 10:57:10;;;;;;;7.10;5.25;;;23.60;97.60;;;;;;5058449;28;20038;-58
2023/06/23 10:59:42;;;;;;;6.28;4.80;;;23.90;97.40;;;;;;5039839;28;20040;-55
2023/06/23 11:02:18;;;;;;;5.50;4.33;;;24.10;96.50;;;;;;5062089;28;20051;-53
2023/06/23 11:04:56;;;;;;;5.85;3.53;;;23.50;96.30;;;;;;5043008;28;20050;-57
2023/06/23 11:07:22;;;;;;;5.25;3.80;;;23.60;95.60;;;;;;5057882;28;20087;-55
2023/06/23 11:09:54;;;;;;;5.68;4.03;;;23.70;96.00;;;;;;5064142;28;20045;-58
2023/06/23 11:12:38;;;;;;;5.43;4.13;;;24.00;96.40;;;;;;5046865;28;20134;-56
2023/06/23 11:15:21;;;;;;;6.32;4.18;;;23.80;95.20;;;;;;5077043;28;20036;-57
2023/06/23 11:18:00;;;;;;;4.50;3.67;;;23.80;95.10;;;;;;5059003;28;20407;-56
2023/06/23 11:20:32;;;;;;;7.35;3.22;;;24.10;95.90;;;;;;5059788;28;20044;-53
2023/06/23 11:23:11;;;;;;;5.90;3.53;;;24.20;94.40;;;;;;5067933;28;20357;-57
2023/06/23 11:25:47;;;;;;;7.05;3.10;;;24.00;92.70;;;;;;5065515;28;20402;-53
2023/06/23 11:28:35;;;;;;;6.88;3.72;;;23.70;92.10;;;;;;5048921;28;20036;-55
2023/06/23 11:31:15;;;;;;;5.53;3.60;;;23.70;93.50;;;;;;5065095;28;20044;-55
2023/06/23 11:33:58;;;;;;;6.75;3.88;;;23.70;93.20;;;;;;5060168;28;20036;-58
2023/06/23 11:36:26;;;;;;;5.88;3.85;;;23.50;93.40;;;;;;5064339;28;20031;-55
2023/06/23 11:38:53;;;;;;;5.60;3.10;;;23.70;92.70;;;;;;5064830;28;20399;-54
2023/06/23 11:41:27;;;;;;;8.43;3.58;;;23.40;92.20;;;;;;5066403;28;20090;-57
2023/06/23 11:44:01;;;;;;;5.88;3.13;;;23.50;92.70;;;;;;5050179;28;20410;-54
2023/06/23 11:46:31;;;;;;;6.43;3.13;;;23.90;92.60;;;;;;5069046;28;20114;-55
2023/06/23 11:48:57;;;;;;;5.03;3.60;;;24.20;92.20;;;;;;5043646;28;20055;-54
2023/06/23 11:51:23;;;;;;;4.68;3.53;;;24.50;91.80;;;;;;5064657;28;20509;-57
2023/06/23 11:53:53;;;;;;;5.50;3.20;;;24.10;91.50;;;;;;5062001;28;20036;-55
2023/06/23 11:56:20;;;;;;;7.00;3.53;;;24.30;91.70;;;;;;5079391;28;20039;-57
2023/06/23 11:58:55;;;;;;;7.25;3.00;;;24.70;91.30;;;;;;5084433;28;20035;-56
2023/06/23 12:01:21;;;;;;;3.83;2.88;;;24.70;89.70;;;;;;5086296;28;20715;-56
2023/06/23 12:03:48;;;;;;;6.13;3.35;;;24.30;88.90;;;;;;5084619;28;20066;-56
2023/06/23 12:06:16;;;;;;;6.82;3.50;;;24.30;90.60;;;;;;5067476;28;20108;-57
2023/06/23 12:08:43;;;;;;;4.93;3.05;;;24.40;91.70;;;;;;5063208;28;20360;-56
2023/06/23 12:11:09;;;;;;;4.60;2.90;;;24.70;90.70;;;;;;5061206;28;20123;-57
2023/06/23 12:13:38;;;;;;;4.93;3.42;;;25.00;89.80;;;;;;5065468;28;20948;-57
2023/06/23 12:16:06;;;;;;;5.60;3.08;;;24.90;89.10;;;;;;5085242;28;20043;-57
2023/06/23 12:18:32;;;;;;;7.40;2.97;;;24.80;90.00;;;;;;5075193;28;20101;-57
2023/06/23 12:21:01;;;;;;;4.38;3.20;;;24.70;90.30;;;;;;5056628;28;20131;-57
2023/06/23 12:23:31;;;;;;;6.70;3.30;;;24.60;90.70;;;;;;5049866;28;20048;-56
2023/06/23 12:25:58;;;;;;;6.57;3.67;;;24.70;91.20;;;;;;5061772;28;20058;-58
2023/06/23 12:28:28;;;;;;;4.85;2.85;;;24.90;91.00;;;;;;5056880;28;20083;-58
2023/06/23 12:30:54;;;;;;;6.82;2.72;;;25.10;90.30;;;;;;5062442;28;20048;-58
2023/06/23 12:33:27;;;;;;;5.88;2.67;;;25.10;88.20;;;;;;5063917;28;20056;-58
2023/06/23 12:36:14;;;;;;;4.88;2.58;;;24.40;86.20;;;;;;5039792;28;20566;-58
2023/06/23 12:38:40;;;;;;;6.30;2.95;;;24.50;86.60;;;;;;5043019;28;20047;-58
2023/06/23 12:41:15;;;;;;;5.50;2.28;;;24.50;86.80;;;;;;5058227;28;20047;-57
2023/06/23 12:43:44;;;;;;;5.60;2.58;;;24.20;85.30;;;;;;5061484;28;20044;-58
2023/06/23 12:46:11;;;;;;;4.05;2.65;;;23.70;84.10;;;;;;5042171;28;20101;-56
2023/06/23 12:48:38;;;;;;;4.65;2.40;;;23.70;84.30;;;;;;5057944;28;20052;-57